Time;durP1;ratioP1;P1;durP2;ratioP2;P2;SDS_P1;SDS_P2;PMS_P1;PMS_P2;Temp;Humidity;BMP_temperature;BMP_pressure;BME280_temperature;BME280_humidity;BME280_pressure;Samples;Min_cycle;Max_cycle;Signal;HPM_P1;HPM_P2
2023/08/05 00:01:15;;;;;;;;;;;17.10;59.60;;;13.09;100.00;95480.78;4979122;28;20347;-48
2023/08/05 00:03:41;;;;;;;;;;;17.10;59.80;;;13.08;100.00;95479.19;4987890;28;20287;-45
2023/08/05 00:06:09;;;;;;;;;;;17.10;59.90;;;13.07;100.00;95474.13;4986236;28;19916;-48
2023/08/05 00:08:36;;;;;;;;;;;17.10;59.90;;;13.06;100.00;95473.31;4999594;28;19909;-45
2023/08/05 00:11:02;;;;;;;;;;;17.00;60.00;;;13.06;100.00;95476.00;4978679;28;19909;-51
2023/08/05 00:13:34;;;;;;;;;;;17.10;60.10;;;13.05;100.00;95462.91;4992324;28;19953;-46
2023/08/05 00:16:05;;;;;;;;;;;17.00;60.10;;;13.02;100.00;95466.94;4976770;28;19937;-49
2023/08/05 00:18:30;;;;;;;;;;;17.00;60.20;;;12.97;100.00;95464.31;4986202;28;20016;-46
2023/08/05 00:20:56;;;;;;;;;;;17.00;60.20;;;12.99;100.00;95464.84;4976241;28;20012;-47
2023/08/05 00:23:22;;;;;;;;;;;17.00;60.30;;;12.98;100.00;95457.91;4985743;28;20032;-46
2023/08/05 00:25:48;;;;;;;;;;;17.00;60.40;;;13.01;100.00;95451.19;4980486;28;20387;-46
2023/08/05 00:28:13;;;;;;;;;;;17.00;60.40;;;13.02;100.00;95456.25;5005564;28;19913;-48
2023/08/05 00:30:39;;;;;;;;;;;17.00;60.50;;;13.02;100.00;95458.94;4984529;28;19917;-49
2023/08/05 00:33:05;;;;;;;;;;;17.00;60.50;;;13.02;100.00;95450.09;4991060;28;19995;-46
2023/08/05 00:35:30;;;;;;;;;;;17.00;60.50;;;13.00;100.00;95447.69;4988609;28;19935;-46
2023/08/05 00:37:56;;;;;;;;;;;17.00;60.50;;;12.99;100.00;95440.78;4977730;28;19910;-47
2023/08/05 00:40:22;;;;;;;;;;;17.00;60.60;;;12.95;100.00;95437.88;4983618;28;19910;-47
2023/08/05 00:42:48;;;;;;;;;;;17.00;60.60;;;12.92;100.00;95433.09;4997691;28;19913;-47
2023/08/05 00:45:13;;;;;;;;;;;17.00;60.60;;;12.93;100.00;95433.88;4979786;28;19951;-47
2023/08/05 00:47:41;;;;;;;;;;;17.00;60.60;;;12.93;100.00;95439.22;4982256;28;19948;-48
2023/08/05 00:50:10;;;;;;;;;;;16.90;60.70;;;12.90;100.00;95431.78;4984844;28;19916;-48
2023/08/05 00:52:37;;;;;;;;;;;16.90;60.70;;;12.91;100.00;95439.53;4983269;28;19910;-48
2023/08/05 00:55:04;;;;;;;;;;;16.90;60.80;;;12.90;100.00;95440.59;4988613;28;20321;-49
2023/08/05 00:57:29;;;;;;;;;;;16.90;60.80;;;12.91;100.00;95449.41;4989815;28;20029;-49
2023/08/05 00:59:55;;;;;;;;;;;17.00;60.90;;;12.91;100.00;95441.38;4978142;28;20446;-47
2023/08/05 01:02:21;;;;;;;;;;;17.00;60.90;;;12.89;100.00;95444.34;4980147;28;20020;-47
2023/08/05 01:04:47;;;;;;;;;;;16.90;60.90;;;12.89;100.00;95449.69;4988894;28;19913;-47
2023/08/05 01:07:17;;;;;;;;;;;16.90;61.00;;;12.86;100.00;95447.59;4983593;28;20009;-53
2023/08/05 01:09:42;;;;;;;;;;;16.90;61.00;;;12.90;100.00;95447.81;4977117;28;19909;-53
2023/08/05 01:12:08;;;;;;;;;;;16.90;61.10;;;12.88;100.00;95456.13;4984049;28;20491;-47
2023/08/05 01:14:34;;;;;;;;;;;16.90;61.10;;;12.87;100.00;95454.50;4978949;28;19917;-49
2023/08/05 01:17:01;;;;;;;;;;;16.90;61.20;;;12.89;100.00;95446.22;4979761;28;20381;-49
2023/08/05 01:19:29;;;;;;;;;;;16.90;61.20;;;12.90;100.00;95453.94;4984040;28;19910;-47
2023/08/05 01:22:26;;;;;;;;;;;16.90;61.30;;;12.92;100.00;95453.69;4980605;28;19953;-48
2023/08/05 01:25:24;;;;;;;;;;;16.90;61.30;;;12.92;100.00;95451.81;5009517;28;19909;-50
2023/08/05 01:27:53;;;;;;;;;;;17.00;61.40;;;12.91;100.00;95452.06;4993164;28;19909;-50
2023/08/05 01:30:24;;;;;;;;;;;16.90;62.20;;;12.93;100.00;95453.38;5009511;28;19917;-51
2023/08/05 01:32:52;;;;;;;;;;;16.90;61.50;;;12.92;100.00;95453.69;4994162;28;20429;-50
2023/08/05 01:35:22;;;;;;;;;;;16.90;61.50;;;12.92;100.00;95453.69;4995172;28;19948;-48
2023/08/05 01:37:48;;;;;;;;;;;16.90;61.50;;;12.93;100.00;95445.38;4979805;28;20479;-47
2023/08/05 01:40:14;;;;;;;;;;;17.00;61.60;;;12.94;100.00;95444.31;4986910;28;19909;-45
2023/08/05 01:42:40;;;;;;;;;;;17.00;61.60;;;12.93;100.00;95434.66;4981652;28;20020;-49
2023/08/05 01:45:07;;;;;;;;;;;17.00;61.70;;;12.94;100.00;95438.13;4989029;28;20008;-51
2023/08/05 01:47:33;;;;;;;;;;;17.00;61.70;;;12.92;100.00;95433.09;4981807;28;19913;-49
2023/08/05 01:49:59;;;;;;;;;;;17.00;61.70;;;12.93;100.00;95433.88;4984748;28;20375;-51
2023/08/05 01:52:25;;;;;;;;;;;16.90;61.80;;;12.90;100.00;95424.53;4990832;28;20028;-48
2023/08/05 01:54:51;;;;;;;;;;;16.90;61.80;;;12.88;100.00;95433.91;4984700;28;20343;-53
2023/08/05 01:57:16;;;;;;;;;;;17.00;61.90;;;12.88;100.00;95434.75;4987425;28;19909;-48
2023/08/05 01:59:42;;;;;;;;;;;16.90;61.90;;;12.86;100.00;95431.53;4984563;28;20380;-49
2023/08/05 02:02:08;;;;;;;;;;;16.90;62.00;;;12.86;100.00;95433.44;4981369;28;19914;-51
2023/08/05 02:04:34;;;;;;;;;;;16.90;62.00;;;12.86;100.00;95428.88;4984138;28;19921;-49
2023/08/05 02:06:59;;;;;;;;;;;16.90;62.10;;;12.90;100.00;95432.56;4988081;28;19914;-51
2023/08/05 02:09:25;;;;;;;;;;;16.90;62.20;;;12.86;100.00;95428.88;4983068;28;19964;-47
2023/08/05 02:11:51;;;;;;;;;;;16.90;62.20;;;12.87;100.00;95421.66;4991162;28;19980;-51
2023/08/05 02:14:17;;;;;;;;;;;16.90;62.20;;;12.85;100.00;95416.59;4984621;28;19910;-51
2023/08/05 02:16:42;;;;;;;;;;;16.90;62.20;;;12.87;100.00;95402.94;4990358;28;19909;-47
2023/08/05 02:19:08;;;;;;;;;;;16.90;62.30;;;12.86;100.00;95396.00;4984030;28;19924;-45
2023/08/05 02:21:34;;;;;;;;;;;16.90;62.30;;;12.85;100.00;95400.56;4981195;28;19924;-48
2023/08/05 02:24:00;;;;;;;;;;;16.90;62.30;;;12.86;100.00;95404.03;4991902;28;19920;-47
2023/08/05 02:26:25;;;;;;;;;;;17.00;62.40;;;12.83;100.00;95394.69;4981346;28;19920;-48
2023/08/05 02:28:51;;;;;;;;;;;16.90;62.40;;;12.85;100.00;95389.88;4984329;28;20376;-48
2023/08/05 02:31:17;;;;;;;;;;;16.90;62.40;;;12.84;100.00;95395.47;4981257;28;19963;-50
2023/08/05 02:33:43;;;;;;;;;;;16.90;62.40;;;12.84;100.00;95395.47;4993249;28;19984;-48
2023/08/05 02:36:09;;;;;;;;;;;16.90;62.40;;;12.86;100.00;95393.31;4981128;28;20340;-48
2023/08/05 02:38:35;;;;;;;;;;;16.90;63.20;;;12.86;100.00;95398.69;4984514;28;20008;-45
2023/08/05 02:41:07;;;;;;;;;;;16.90;62.50;;;12.89;100.00;95403.44;4980168;28;20019;-48
2023/08/05 02:43:32;;;;;;;;;;;17.00;62.60;;;12.90;100.00;95397.03;4984535;28;19914;-51
2023/08/05 02:45:58;;;;;;;;;;;17.00;62.60;;;12.89;100.00;95403.44;4989542;28;19909;-48
2023/08/05 02:48:25;;;;;;;;;;;17.00;62.60;;;12.92;100.00;95413.59;4985011;28;19956;-51
2023/08/05 02:50:53;;;;;;;;;;;17.00;62.60;;;12.91;100.00;95417.31;4987075;28;19910;-48
2023/08/05 02:53:19;;;;;;;;;;;17.00;62.60;;;12.92;100.00;95414.38;4983926;28;19972;-47
2023/08/05 02:55:45;;;;;;;;;;;17.00;62.60;;;12.93;100.00;95420.50;4987410;28;20371;-46
2023/08/05 02:58:11;;;;;;;;;;;17.00;62.60;;;12.92;100.00;95409.03;4976613;28;19937;-48
2023/08/05 03:00:37;;;;;;;;;;;17.00;62.60;;;12.91;100.00;95403.94;4986977;28;19917;-47
2023/08/05 03:03:04;;;;;;;;;;;17.00;62.70;;;12.92;100.00;95406.34;4979746;28;19918;-46
2023/08/05 03:05:30;;;;;;;;;;;17.00;62.70;;;12.94;100.00;95414.06;4986946;28;20270;-47
2023/08/05 03:07:55;;;;;;;;;;;17.00;62.70;;;12.92;100.00;95416.25;4983563;28;19920;-48
2023/08/05 03:10:22;;;;;;;;;;;17.00;62.80;;;12.96;100.00;95415.41;4986665;28;20377;-51
2023/08/05 03:12:47;;;;;;;;;;;17.00;62.90;;;12.99;100.00;95415.91;4983348;28;19909;-52
2023/08/05 03:15:13;;;;;;;;;;;17.10;62.90;;;12.99;100.00;95426.63;4978087;28;20283;-50
2023/08/05 03:17:39;;;;;;;;;;;17.10;63.00;;;13.01;100.00;95430.59;4983329;28;19914;-48
2023/08/05 03:20:21;;;;;;;;;;;17.10;63.00;;;13.00;100.00;95437.00;4979838;28;20398;-49
2023/08/05 03:22:47;;;;;;;;;;;17.10;63.00;;;13.00;100.00;95438.88;5010401;28;19994;-52
2023/08/05 03:25:13;;;;;;;;;;;17.10;63.00;;;13.01;100.00;95443.19;4987849;28;20367;-53
2023/08/05 03:27:38;;;;;;;;;;;17.10;63.00;;;13.00;100.00;95442.34;4985495;28;19909;-49
2023/08/05 03:30:05;;;;;;;;;;;17.10;63.00;;;13.00;100.00;95441.56;4986663;28;19921;-48
2023/08/05 03:32:31;;;;;;;;;;;17.10;63.10;;;13.02;100.00;95448.22;4986068;28;19978;-50
2023/08/05 03:34:57;;;;;;;;;;;17.10;63.10;;;13.05;100.00;95446.88;4991967;28;20403;-48
2023/08/05 03:37:22;;;;;;;;;;;17.10;63.10;;;13.06;100.00;95441.22;4980117;28;20016;-51
2023/08/05 03:39:48;;;;;;;;;;;17.20;63.20;;;13.06;100.00;95449.25;4975674;28;19909;-52
2023/08/05 03:42:14;;;;;;;;;;;17.10;63.20;;;13.08;100.00;95447.09;4985376;28;19924;-51
2023/08/05 03:44:42;;;;;;;;;;;17.10;63.20;;;13.08;100.00;95444.41;4977680;28;19909;-47
2023/08/05 03:47:08;;;;;;;;;;;17.10;63.20;;;13.08;100.00;95452.44;4992474;28;20368;-47
2023/08/05 03:49:34;;;;;;;;;;;17.10;63.20;;;13.08;100.00;95447.09;4993755;28;20342;-47
2023/08/05 03:52:00;;;;;;;;;;;17.20;63.30;;;13.06;100.00;95438.56;4989690;28;19988;-47
2023/08/05 03:54:26;;;;;;;;;;;17.10;63.20;;;13.09;100.00;95443.34;4986815;28;20399;-48
2023/08/05 03:56:52;;;;;;;;;;;17.10;63.30;;;13.08;100.00;95441.75;4984475;28;19909;-48
2023/08/05 03:59:19;;;;;;;;;;;17.20;63.40;;;13.09;100.00;95437.97;4986311;28;19914;-49
2023/08/05 04:01:45;;;;;;;;;;;17.10;64.10;;;13.10;100.00;95436.09;4985174;28;19971;-50
2023/08/05 04:04:10;;;;;;;;;;;17.20;63.40;;;13.09;100.00;95437.97;4984394;28;19913;-49
2023/08/05 04:06:36;;;;;;;;;;;17.20;63.50;;;13.09;100.00;95443.34;4979836;28;20299;-47
2023/08/05 04:09:03;;;;;;;;;;;17.20;63.50;;;13.09;100.00;95446.00;4987069;28;19920;-48
2023/08/05 04:11:28;;;;;;;;;;;17.20;63.50;;;13.08;100.00;95449.78;4992393;28;20288;-49
2023/08/05 04:13:58;;;;;;;;;;;17.20;63.50;;;13.08;100.00;95447.09;4978957;28;19913;-47
2023/08/05 04:16:24;;;;;;;;;;;17.20;63.50;;;13.12;100.00;95447.31;4978965;28;19916;-47
2023/08/05 04:18:49;;;;;;;;;;;17.20;63.60;;;13.13;100.00;95447.06;4984688;28;20292;-48
2023/08/05 04:21:16;;;;;;;;;;;17.20;63.50;;;13.12;100.00;95444.66;4984565;28;19910;-51
2023/08/05 04:23:42;;;;;;;;;;;17.20;63.60;;;13.12;100.00;95437.41;4991946;28;19921;-52
2023/08/05 04:26:08;;;;;;;;;;;17.20;63.60;;;13.14;100.00;95437.94;4979740;28;19909;-48
2023/08/05 04:28:34;;;;;;;;;;;17.20;63.60;;;13.17;100.00;95442.72;4985169;28;19921;-48
2023/08/05 04:31:00;;;;;;;;;;;17.20;63.60;;;13.18;100.00;95441.63;4999638;28;19916;-50
2023/08/05 04:33:26;;;;;;;;;;;17.30;63.70;;;13.19;100.00;95439.75;4990695;28;19959;-49
2023/08/05 04:35:52;;;;;;;;;;;17.30;63.70;;;13.19;100.00;95445.91;4978601;28;19910;-48
2023/08/05 04:38:18;;;;;;;;;;;17.30;63.70;;;13.17;100.00;95442.72;4990721;28;19909;-47
2023/08/05 04:40:44;;;;;;;;;;;17.30;63.60;;;13.21;100.00;95450.97;4987114;28;20004;-45
2023/08/05 04:43:11;;;;;;;;;;;17.30;63.60;;;13.18;100.00;95448.88;4979026;28;19913;-47
2023/08/05 04:45:38;;;;;;;;;;;17.30;63.60;;;13.19;100.00;95442.44;4984998;28;20375;-48
2023/08/05 04:48:05;;;;;;;;;;;17.30;63.60;;;13.15;100.00;95441.41;4979213;28;20447;-49
2023/08/05 04:50:31;;;;;;;;;;;17.40;63.60;;;13.17;100.00;95450.75;4979068;28;20351;-47
2023/08/05 04:52:57;;;;;;;;;;;17.40;63.60;;;13.22;100.00;95455.22;4990940;28;19944;-51
2023/08/05 04:55:23;;;;;;;;;;;17.40;63.70;;;13.24;100.00;95453.09;4978806;28;19910;-50
2023/08/05 04:57:53;;;;;;;;;;;17.40;63.60;;;13.25;100.00;95461.94;4984570;28;19981;-53
2023/08/05 05:00:19;;;;;;;;;;;17.40;63.60;;;13.27;100.00;95465.91;4988769;28;19956;-52
2023/08/05 05:02:45;;;;;;;;;;;17.50;63.60;;;13.31;100.00;95471.50;4997350;28;20829;-48
2023/08/05 05:05:11;;;;;;;;;;;17.50;63.60;;;13.34;100.00;95469.03;5008689;28;20012;-48
2023/08/05 05:07:36;;;;;;;;;;;17.50;63.60;;;13.38;100.00;95469.25;4987841;28;19963;-49
2023/08/05 05:10:02;;;;;;;;;;;17.60;63.70;;;13.38;100.00;95472.75;4988029;28;20318;-46
2023/08/05 05:12:28;;;;;;;;;;;17.70;63.70;;;13.40;100.00;95470.59;4983458;28;19910;-52
2023/08/05 05:14:54;;;;;;;;;;;17.70;63.60;;;13.42;100.00;95473.00;4981535;28;20260;-47
2023/08/05 05:17:21;;;;;;;;;;;17.70;63.60;;;13.46;100.00;95473.22;4987496;28;20307;-49
2023/08/05 05:19:47;;;;;;;;;;;17.70;63.60;;;13.47;100.00;95467.56;4988597;28;19909;-49
2023/08/05 05:22:19;;;;;;;;;;;17.80;63.60;;;13.47;100.00;95475.59;4987029;28;19920;-47
2023/08/05 05:24:46;;;;;;;;;;;17.80;63.50;;;13.54;100.00;95476.06;4982024;28;19948;-47
2023/08/05 05:27:17;;;;;;;;;;;17.80;63.50;;;13.57;100.00;95475.50;4990124;28;19913;-46
2023/08/05 05:29:44;;;;;;;;;;;17.90;63.50;;;13.59;100.00;95475.97;4983058;23;19930;-47
2023/08/05 05:32:10;;;;;;;;;;;18.00;63.50;;;13.65;100.00;95476.72;4951664;28;20460;-46
2023/08/05 05:34:36;;;;;;;;;;;18.00;63.40;;;13.69;100.00;95471.59;4951547;28;19917;-46
2023/08/05 05:37:02;;;;;;;;;;;18.10;63.40;;;13.71;100.00;95477.47;4952203;28;19914;-52
2023/08/05 05:39:28;;;;;;;;;;;18.10;63.40;;;13.75;100.00;95489.19;4948684;28;19941;-49
2023/08/05 05:41:55;;;;;;;;;;;18.10;63.30;;;13.78;100.00;95486.72;4935371;29;19922;-47
2023/08/05 05:44:24;;;;;;;;;;;18.20;63.40;;;13.77;100.00;95495.06;4936814;29;19946;-50
2023/08/05 05:46:50;;;;;;;;;;;18.20;63.30;;;13.81;100.00;95496.88;4948949;28;19930;-48
2023/08/05 05:49:18;;;;;;;;;;;18.20;63.30;;;13.81;100.00;95488.84;4945503;28;20075;-48
2023/08/05 05:51:46;;;;;;;;;;;18.30;63.30;;;13.83;100.00;95494.72;4946325;28;20012;-49
2023/08/05 05:54:12;;;;;;;;;;;18.20;63.20;;;13.85;100.00;95487.19;4947777;28;20274;-49
2023/08/05 05:56:39;;;;;;;;;;;18.20;63.20;;;13.81;100.00;95488.03;4955758;28;19955;-46
2023/08/05 05:59:05;;;;;;;;;;;18.30;63.10;;;13.84;100.00;95496.28;4944400;28;19910;-51
2023/08/05 06:01:30;;;;;;;;;;;18.30;63.10;;;13.85;100.00;95503.25;4953577;28;20308;-47
2023/08/05 06:03:56;;;;;;;;;;;18.40;63.10;;;13.81;100.00;95502.22;4952816;28;19914;-48
2023/08/05 06:06:22;;;;;;;;;;;18.40;63.10;;;13.88;100.00;95499.19;4938527;28;19942;-47
2023/08/05 06:08:48;;;;;;;;;;;18.40;63.10;;;13.88;100.00;95504.53;4945651;28;19916;-52
2023/08/05 06:11:14;;;;;;;;;;;18.40;63.00;;;13.93;100.00;95506.38;4942246;28;19916;-52
2023/08/05 06:13:39;;;;;;;;;;;18.40;63.00;;;13.94;100.00;95508.75;4947069;28;19920;-48
2023/08/05 06:16:05;;;;;;;;;;;18.40;63.00;;;13.92;100.00;95508.25;4954793;28;19910;-47
2023/08/05 06:18:31;;;;;;;;;;;18.40;63.00;;;13.94;100.00;95510.63;4944774;28;19910;-49
2023/08/05 06:20:57;;;;;;;;;;;18.50;62.90;;;14.03;100.00;95512.38;4951959;28;19917;-50
2023/08/05 06:23:23;;;;;;;;;;;18.50;62.80;;;14.07;100.00;95510.75;4944811;28;19926;-49
2023/08/05 06:25:49;;;;;;;;;;;18.60;62.80;;;14.14;100.00;95506.91;4953452;28;19910;-46
2023/08/05 06:28:15;;;;;;;;;;;18.70;62.70;;;14.18;100.00;95500.69;4954459;28;19909;-50
2023/08/05 06:30:47;;;;;;;;;;;18.80;62.70;;;14.24;100.00;95504.09;4954714;28;19965;-46
2023/08/05 06:33:13;;;;;;;;;;;18.80;62.50;;;14.24;100.00;95499.53;4954227;28;20336;-47
2023/08/05 06:35:40;;;;;;;;;;;18.90;62.40;;;14.32;100.00;95504.25;4955218;28;20357;-46
2023/08/05 06:38:06;;;;;;;;;;;19.00;62.30;;;14.37;100.00;95508.72;4953961;28;20081;-46
2023/08/05 06:40:32;;;;;;;;;;;19.10;62.20;;;14.39;100.00;95500.41;4949952;28;20013;-48
2023/08/05 06:42:58;;;;;;;;;;;19.20;62.00;;;14.48;100.00;95504.81;4946284;28;20460;-48
2023/08/05 06:45:23;;;;;;;;;;;19.30;61.90;;;14.61;100.00;95499.84;4953650;28;19920;-46
2023/08/05 06:47:49;;;;;;;;;;;19.50;61.80;;;14.70;100.00;95504.25;4953836;28;20081;-47
2023/08/05 06:50:15;;;;;;;;;;;19.60;61.60;;;14.80;100.00;95500.59;4954316;28;20373;-49
2023/08/05 06:52:41;;;;;;;;;;;19.70;61.40;;;14.94;100.00;95495.28;4951020;28;19953;-46
2023/08/05 06:55:08;;;;;;;;;;;19.90;61.20;;;15.07;100.00;95491.03;4947482;28;20322;-46
2023/08/05 06:57:34;;;;;;;;;;;20.10;61.10;;;15.11;100.00;95490.16;4941706;28;19913;-48
2023/08/05 07:00:00;;;;;;;;;;;20.30;60.90;;;15.22;100.00;95485.41;4954410;28;20282;-46
2023/08/05 07:02:26;;;;;;;;;;;20.40;60.60;;;15.42;100.00;95482.34;4954327;28;19918;-50
2023/08/05 07:04:53;;;;;;;;;;;20.60;60.50;;;15.56;99.06;95476.97;4961837;28;19981;-46
2023/08/05 07:07:19;;;;;;;;;;;20.70;60.30;;;15.71;98.52;95478.59;4936492;28;19910;-49
2023/08/05 07:09:45;;;;;;;;;;;21.00;60.20;;;15.85;98.29;95479.38;4945087;28;19944;-46
2023/08/05 07:12:11;;;;;;;;;;;21.10;60.00;;;15.99;96.57;95484.75;4949055;28;19917;-48
2023/08/05 07:14:38;;;;;;;;;;;21.30;59.90;;;16.15;95.77;95466.41;4954320;28;19911;-47
2023/08/05 07:17:05;;;;;;;;;;;21.30;59.70;;;16.26;94.16;95469.66;4948294;28;20484;-48
2023/08/05 07:19:30;;;;;;;;;;;21.50;59.60;;;16.34;93.75;95469.72;4952838;28;19921;-46
2023/08/05 07:21:56;;;;;;;;;;;21.50;59.60;;;16.39;92.72;95466.94;4952079;28;20368;-46
2023/08/05 07:24:22;;;;;;;;;;;21.60;59.40;;;16.32;94.04;95468.44;4942760;28;19910;-46
2023/08/05 07:26:48;;;;;;;;;;;21.70;59.30;;;16.37;93.11;95469.13;4953614;28;20408;-46
2023/08/05 07:29:14;;;;;;;;;;;21.70;59.10;;;16.50;93.78;95462.09;4946817;28;20325;-50
2023/08/05 07:31:40;;;;;;;;;;;21.80;59.00;;;16.64;91.15;95465.53;4948458;28;19918;-48
2023/08/05 07:34:05;;;;;;;;;;;21.90;58.90;;;16.74;89.66;95472.56;4949438;28;20009;-46
2023/08/05 07:36:31;;;;;;;;;;;22.00;58.70;;;16.66;85.29;95468.72;4944912;28;19910;-48
2023/08/05 07:38:59;;;;;;;;;;;22.10;58.60;;;16.74;86.77;95467.19;4936833;28;19917;-48
2023/08/05 07:41:26;;;;;;;;;;;22.10;58.20;;;16.86;86.93;95470.16;4953471;28;20035;-47
2023/08/05 07:43:57;;;;;;;;;;;22.20;58.20;;;16.99;88.05;95460.41;4937002;28;20356;-49
2023/08/05 07:46:30;;;;;;;;;;;22.20;58.10;;;17.22;88.10;95455.78;4947215;28;19924;-46
2023/08/05 07:48:58;;;;;;;;;;;22.50;58.70;;;17.49;84.45;95454.00;4940539;28;19910;-47
2023/08/05 07:51:25;;;;;;;;;;;22.70;57.90;;;17.75;83.03;95457.56;4952864;28;20001;-48
2023/08/05 07:53:53;;;;;;;;;;;23.10;57.60;;;17.96;82.47;95463.19;4940717;28;20295;-46
2023/08/05 07:56:19;;;;;;;;;;;23.50;57.40;;;18.08;80.86;95467.16;4954066;28;19932;-48
2023/08/05 07:58:46;;;;;;;;;;;23.70;57.10;;;18.39;79.62;95465.13;4949693;28;20448;-47
2023/08/05 08:01:22;;;;;;;;;;;24.00;56.70;;;18.68;77.79;95471.81;4941065;28;19937;-47
2023/08/05 08:03:53;;;;;;;;;;;24.40;56.50;;;18.93;77.84;95471.00;4934048;28;20037;-47
2023/08/05 08:06:19;;;;;;;;;;;24.70;56.20;;;18.65;76.22;95467.06;4936164;28;19911;-46
2023/08/05 08:08:47;;;;;;;;;;;25.00;55.60;;;19.03;74.04;95464.50;4959509;28;19914;-47
2023/08/05 08:11:13;;;;;;;;;;;25.10;55.20;;;19.32;75.69;95471.06;4935992;28;20012;-47
2023/08/05 08:13:40;;;;;;;;;;;25.40;55.00;;;19.66;72.92;95472.88;4944896;28;20012;-47
2023/08/05 08:16:06;;;;;;;;;;;25.70;54.80;;;19.84;71.52;95479.78;4941966;28;20313;-47
2023/08/05 08:18:32;;;;;;;;;;;26.00;54.40;;;19.86;70.06;95472.13;4944204;28;19910;-47
2023/08/05 08:20:59;;;;;;;;;;;26.20;54.10;;;19.92;69.87;95470.03;4946954;28;19918;-47
2023/08/05 08:23:25;;;;;;;;;;;26.30;53.50;;;20.07;69.38;95471.41;4953504;28;19914;-47
2023/08/05 08:25:51;;;;;;;;;;;26.50;53.30;;;20.12;68.33;95468.50;4937999;28;19918;-52
2023/08/05 08:28:17;;;;;;;;;;;26.60;52.90;;;20.21;66.59;95458.44;4935947;28;20002;-50
2023/08/05 08:30:57;;;;;;;;;;;26.70;52.70;;;20.44;66.31;95461.59;4948355;28;19976;-47
2023/08/05 08:33:25;;;;;;;;;;;26.90;52.40;;;20.67;66.25;95455.88;4952592;28;20289;-51
2023/08/05 08:35:51;;;;;;;;;;;27.10;52.30;;;20.96;65.84;95461.16;4963398;28;20424;-49
2023/08/05 08:38:18;;;;;;;;;;;27.20;52.10;;;21.12;63.89;95452.41;4934384;29;19914;-48
2023/08/05 08:40:48;;;;;;;;;;;27.50;52.00;;;21.18;63.09;95461.91;4943856;28;20274;-49
2023/08/05 08:43:18;;;;;;;;;;;27.70;51.60;;;21.25;63.74;95457.53;4946336;28;19918;-47
2023/08/05 08:45:47;;;;;;;;;;;27.80;51.30;;;21.43;63.62;95452.72;4941520;28;19956;-48
2023/08/05 08:48:15;;;;;;;;;;;28.00;51.10;;;21.44;62.19;95453.53;4941073;29;19961;-51
2023/08/05 08:50:44;;;;;;;;;;;28.00;50.80;;;21.43;62.06;95449.22;4946702;29;19910;-50
2023/08/05 08:53:13;;;;;;;;;;;28.10;51.30;;;21.63;61.76;95442.94;4940595;29;19910;-47
2023/08/05 08:55:41;;;;;;;;;;;28.00;50.50;;;21.61;59.50;95433.53;4933993;29;19910;-51
2023/08/05 08:58:07;;;;;;;;;;;28.00;50.20;;;21.46;60.29;95432.28;4933907;28;19933;-48
2023/08/05 09:00:35;;;;;;;;;;;27.90;50.00;;;21.42;59.01;95434.88;4945854;29;19938;-47
2023/08/05 09:03:01;;;;;;;;;;;27.80;49.70;;;21.50;59.77;95427.78;4959520;28;19965;-47
2023/08/05 09:05:49;;;;;;;;;;;27.70;49.60;;;21.48;59.94;95432.75;4940780;29;19949;-47
2023/08/05 09:08:15;;;;;;;;;;;27.70;49.60;;;21.57;59.10;95441.56;4937078;29;19914;-48
2023/08/05 09:10:44;;;;;;;;;;;27.70;49.50;;;21.44;61.41;95448.91;4938440;29;19953;-48
2023/08/05 09:13:10;;;;;;;;;;;27.70;49.30;;;21.57;58.52;95441.56;4946967;29;19910;-48
2023/08/05 09:15:37;;;;;;;;;;;27.80;49.20;;;21.79;59.21;95442.25;4940028;29;19910;-47
2023/08/05 09:18:05;;;;;;;;;;;28.00;49.00;;;21.79;56.66;95429.47;4949555;28;19925;-49
2023/08/05 09:20:32;;;;;;;;;;;28.20;48.90;;;21.94;57.57;95428.78;4933328;28;19934;-51
2023/08/05 09:23:01;;;;;;;;;;;28.30;48.80;;;22.14;55.75;95427.06;4938020;29;19925;-48
2023/08/05 09:25:29;;;;;;;;;;;28.50;48.70;;;22.54;53.13;95420.88;4952902;28;19917;-47
2023/08/05 09:27:56;;;;;;;;;;;29.00;48.30;;;23.09;56.61;95423.94;4944049;28;19910;-47
2023/08/05 09:30:25;;;;;;;;;;;29.40;48.00;;;23.43;49.89;95417.03;4941621;28;20336;-47
2023/08/05 09:32:53;;;;;;;;;;;29.80;47.80;;;23.67;50.53;95412.56;4933762;29;20397;-47
2023/08/05 09:35:18;;;;;;;;;;;30.30;47.40;;;24.16;46.84;95404.78;4939804;28;20012;-50
2023/08/05 09:37:51;;;;;;;;;;;30.70;46.80;;;24.73;46.75;95407.13;4945960;28;20406;-47
2023/08/05 09:40:19;;;;;;;;;;;31.10;46.50;;;24.91;46.75;95408.22;4944552;28;19910;-52
2023/08/05 09:43:03;;;;;;;;;;;31.50;46.10;;;25.17;44.89;95404.06;4944951;28;20299;-53
2023/08/05 09:45:33;;;;;;;;;;;32.00;45.50;;;25.42;46.24;95404.50;4941643;28;19910;-48
2023/08/05 09:48:09;;;;;;;;;;;32.40;45.10;;;25.29;43.90;95396.50;4944985;28;20282;-50
2023/08/05 09:50:39;;;;;;;;;;;32.90;44.10;;;25.87;43.77;95379.13;4949989;28;19961;-49
2023/08/05 09:53:07;;;;;;;;;;;33.20;43.30;;;26.37;43.05;95396.16;4941528;28;19914;-52
2023/08/05 09:55:36;;;;;;;;;;;33.60;43.20;;;26.63;42.55;95391.84;4943882;28;20344;-53
2023/08/05 09:58:07;;;;;;;;;;;34.00;42.60;;;27.07;42.30;95382.94;4951630;28;19910;-52
2023/08/05 10:00:36;;;;;;;;;;;34.30;42.30;;;27.37;39.58;95383.63;4944137;28;19918;-48
2023/08/05 10:03:06;;;;;;;;;;;34.60;42.10;;;27.45;39.89;95379.81;4941166;28;19922;-48
2023/08/05 10:05:34;;;;;;;;;;;34.60;41.90;;;27.07;40.41;95386.44;4940523;28;20344;-48
2023/08/05 10:08:00;;;;;;;;;;;34.50;41.30;;;26.79;40.42;95384.19;4939225;28;19965;-51
2023/08/05 10:10:29;;;;;;;;;;;34.50;41.10;;;27.00;39.33;95376.22;4949976;28;19910;-48
2023/08/05 10:13:08;;;;;;;;;;;34.50;40.40;;;27.03;39.02;95368.44;4936770;29;19918;-48
2023/08/05 10:15:41;;;;;;;;;;;34.50;40.40;;;26.71;38.61;95364.22;4939855;28;19918;-51
2023/08/05 10:18:10;;;;;;;;;;;34.20;40.50;;;26.53;38.05;95357.78;4953524;28;19917;-48
2023/08/05 10:20:38;;;;;;;;;;;34.00;40.20;;;26.82;37.93;95363.56;4943572;28;20005;-51
2023/08/05 10:23:08;;;;;;;;;;;34.10;39.70;;;26.98;38.00;95369.56;4947705;28;19973;-52
2023/08/05 10:25:49;;;;;;;;;;;34.30;39.00;;;26.84;36.08;95367.47;4949338;28;19918;-51
2023/08/05 10:28:24;;;;;;;;;;;34.60;38.40;;;27.40;35.98;95363.75;4954814;28;19914;-55
2023/08/05 10:30:53;;;;;;;;;;;35.00;38.30;;;27.52;40.62;95357.19;4942980;28;19929;-50
2023/08/05 10:33:19;;;;;;;;;;;35.40;38.30;;;27.18;40.90;95354.56;4954617;28;19917;-49
2023/08/05 10:35:46;;;;;;;;;;;35.30;37.70;;;26.67;40.70;95359.88;4938549;28;19916;-53
2023/08/05 10:38:21;;;;;;;;;;;34.90;37.60;;;25.67;43.46;95353.88;4942709;28;19910;-52
2023/08/05 10:40:50;;;;;;;;;;;34.40;37.60;;;25.67;43.51;95339.44;4945222;28;19942;-53
2023/08/05 10:43:41;;;;;;;;;;;34.00;37.50;;;25.90;43.24;95342.91;4947946;28;20299;-53
2023/08/05 10:46:06;;;;;;;;;;;34.20;37.20;;;25.87;42.50;95334.69;4945593;28;20009;-52
2023/08/05 10:48:38;;;;;;;;;;;34.60;36.90;;;26.74;43.77;95335.38;4942036;28;20365;-52
2023/08/05 10:51:19;;;;;;;;;;;35.00;37.00;;;26.98;39.64;95328.56;4953152;28;20264;-51
2023/08/05 10:53:59;;;;;;;;;;;35.50;36.60;;;26.61;39.33;95326.66;4953427;28;19913;-53
2023/08/05 10:56:34;;;;;;;;;;;35.30;36.00;;;26.16;41.61;95322.19;4954995;28;19917;-52
2023/08/05 10:59:02;;;;;;;;;;;34.90;36.20;;;25.92;42.10;95321.50;4946724;28;19911;-52
2023/08/05 11:01:56;;;;;;;;;;;34.80;35.70;;;25.76;42.53;95310.75;4950190;28;20000;-53
2023/08/05 11:04:30;;;;;;;;;;;34.80;34.80;;;25.91;44.14;95314.47;4953728;28;20373;-50
2023/08/05 11:07:00;;;;;;;;;;;34.60;35.30;;;26.23;44.52;95319.53;4954957;28;20058;-49
2023/08/05 11:09:27;;;;;;;;;;;34.40;35.50;;;26.74;42.66;95321.72;4953445;28;20008;-52
2023/08/05 11:11:53;;;;;;;;;;;34.70;35.30;;;27.13;44.46;95313.09;4954842;28;19921;-48
2023/08/05 11:14:19;;;;;;;;;;;35.10;35.30;;;27.29;40.49;95299.19;4954566;28;19910;-55